createdAt,value
2018-06-22T00:00:49.660Z,988.633
2018-06-22T00:02:49.721Z,988.628
2018-06-22T00:04:49.957Z,988.650
2018-06-22T00:06:50.118Z,988.650
2018-06-22T00:08:50.151Z,988.656
2018-06-22T00:10:50.193Z,988.680
2018-06-22T00:12:50.238Z,988.693
2018-06-22T00:14:50.325Z,988.691
2018-06-22T00:16:50.466Z,988.712
2018-06-22T00:18:50.477Z,988.704
2018-06-22T00:20:49.618Z,988.705
2018-06-22T00:22:49.685Z,988.700
2018-06-22T00:24:49.737Z,988.706
2018-06-22T00:26:49.949Z,988.736
2018-06-22T00:28:50.024Z,988.749
2018-06-22T00:30:50.117Z,988.746
2018-06-22T00:32:50.156Z,988.746
2018-06-22T00:34:50.423Z,988.758
2018-06-22T00:36:49.752Z,988.761
2018-06-22T00:38:49.887Z,988.774
2018-06-22T00:40:49.957Z,988.773
2018-06-22T00:42:50.093Z,988.773
2018-06-22T00:44:50.175Z,988.858
2018-06-22T00:46:50.360Z,988.872
2018-06-22T00:48:50.410Z,988.900
2018-06-22T00:50:50.517Z,988.901
2018-06-22T00:52:50.565Z,988.945
2018-06-22T00:54:49.657Z,988.958
2018-06-22T00:56:49.841Z,989.002
2018-06-22T00:58:49.896Z,989.008
2018-06-22T01:00:50.031Z,989.033
2018-06-22T01:02:50.121Z,989.031
2018-06-22T01:04:50.397Z,989.031
2018-06-22T01:06:50.572Z,989.046
2018-06-22T01:08:49.673Z,989.038
2018-06-22T01:10:49.840Z,989.048
2018-06-22T01:12:49.914Z,989.057
2018-06-22T01:14:50.026Z,989.071
2018-06-22T01:16:50.217Z,989.067
2018-06-22T01:18:50.317Z,989.072
2018-06-22T01:20:50.369Z,989.085
2018-06-22T01:22:50.501Z,989.103
2018-06-22T01:24:50.569Z,989.110
2018-06-22T01:26:49.807Z,989.123
2018-06-22T01:28:49.877Z,989.123
2018-06-22T01:30:49.981Z,989.123
2018-06-22T01:32:50.055Z,989.139
2018-06-22T01:34:50.292Z,989.136
2018-06-22T01:36:50.483Z,989.158
2018-06-22T01:38:50.631Z,989.175
2018-06-22T01:40:49.691Z,989.176
2018-06-22T01:42:49.725Z,989.161
2018-06-22T01:44:49.888Z,989.136
2018-06-22T01:46:50.110Z,989.133
2018-06-22T01:48:50.135Z,989.140
2018-06-22T01:50:50.193Z,989.152
2018-06-22T01:52:50.228Z,989.167
2018-06-22T01:54:50.249Z,989.157
2018-06-22T01:56:50.453Z,989.145
2018-06-22T01:58:49.629Z,989.148
2018-06-22T02:00:49.670Z,989.183
2018-06-22T02:02:49.725Z,989.177
2018-06-22T02:04:50.002Z,989.159
2018-06-22T02:06:50.158Z,989.159
2018-06-22T02:08:49.901Z,989.165
2018-06-22T02:10:50.057Z,989.200
2018-06-22T02:12:50.185Z,989.194
2018-06-22T02:14:50.282Z,989.166
2018-06-22T02:16:50.612Z,989.166
2018-06-22T02:18:49.669Z,989.196
2018-06-22T02:20:49.753Z,989.209
2018-06-22T02:22:49.920Z,989.238
2018-06-22T02:24:49.978Z,989.261
2018-06-22T02:26:50.168Z,989.260
2018-06-22T02:28:50.221Z,989.271
2018-06-22T02:30:50.375Z,989.285
2018-06-22T02:32:50.445Z,989.294
2018-06-22T02:34:49.785Z,989.291
2018-06-22T02:36:50.091Z,989.294
2018-06-22T02:38:50.154Z,989.280
2018-06-22T02:40:50.274Z,989.280
2018-06-22T02:42:50.338Z,989.280
2018-06-22T02:44:50.410Z,989.258
2018-06-22T02:46:50.590Z,989.230
2018-06-22T02:48:49.951Z,989.215
2018-06-22T02:50:50.078Z,989.207
2018-06-22T02:52:50.138Z,989.208
2018-06-22T02:54:50.168Z,989.236
2018-06-22T02:56:50.321Z,989.249
2018-06-22T02:58:50.436Z,989.266
2018-06-22T03:00:50.512Z,989.266
2018-06-22T03:02:50.560Z,989.285
2018-06-22T03:04:49.871Z,989.290
2018-06-22T03:06:50.052Z,989.320
2018-06-22T03:08:50.124Z,989.314
2018-06-22T03:10:50.209Z,989.335
2018-06-22T03:12:50.319Z,989.357
2018-06-22T03:14:50.370Z,989.359
2018-06-22T03:16:50.593Z,989.363
2018-06-22T03:18:49.805Z,989.376
2018-06-22T03:20:49.892Z,989.422
2018-06-22T03:22:49.987Z,989.416
2018-06-22T03:24:50.095Z,989.455
2018-06-22T03:26:50.339Z,989.474
2018-06-22T03:28:50.425Z,989.501
2018-06-22T03:30:50.563Z,989.501
2018-06-22T03:32:49.687Z,989.538
2018-06-22T03:34:50.092Z,989.532
2018-06-22T03:36:50.283Z,989.532
2018-06-22T03:38:50.404Z,989.540
2018-06-22T03:40:50.471Z,989.529
2018-06-22T03:42:50.568Z,989.506
2018-06-22T03:44:49.712Z,989.500
2018-06-22T03:46:49.912Z,989.500
2018-06-22T03:48:50.019Z,989.515
2018-06-22T03:50:50.153Z,989.504
2018-06-22T03:52:50.286Z,989.526
2018-06-22T03:54:50.334Z,989.552
2018-06-22T03:56:50.595Z,989.558
2018-06-22T03:58:50.105Z,989.562
2018-06-22T04:00:50.208Z,989.571
2018-06-22T04:02:50.285Z,989.568
2018-06-22T04:04:50.611Z,989.572
2018-06-22T04:06:49.892Z,989.547
2018-06-22T04:08:49.957Z,989.548
2018-06-22T04:10:50.108Z,989.548
2018-06-22T04:12:50.191Z,989.548
2018-06-22T04:14:50.451Z,989.558
2018-06-22T04:16:49.689Z,989.577
2018-06-22T04:18:49.746Z,989.564
2018-06-22T04:20:49.816Z,989.601
2018-06-22T04:22:50.044Z,989.618
2018-06-22T04:24:50.113Z,989.635
2018-06-22T04:26:50.299Z,989.630
2018-06-22T04:28:50.425Z,989.638
2018-06-22T04:30:50.475Z,989.642
2018-06-22T04:32:50.541Z,989.643
2018-06-22T04:34:49.977Z,989.651
2018-06-22T04:36:50.231Z,989.658
2018-06-22T04:38:50.300Z,989.657
2018-06-22T04:40:50.413Z,989.663
2018-06-22T04:42:50.589Z,989.670
2018-06-22T04:44:49.800Z,989.649
2018-06-22T04:46:49.982Z,989.647
2018-06-22T04:48:50.033Z,989.643
2018-06-22T04:50:50.136Z,989.646
2018-06-22T04:52:50.241Z,989.650
2018-06-22T04:54:50.326Z,989.698
2018-06-22T04:56:50.462Z,989.709
2018-06-22T04:58:50.578Z,989.717
2018-06-22T05:00:49.642Z,989.712
2018-06-22T05:02:49.752Z,989.714
2018-06-22T05:04:50.075Z,989.746
2018-06-22T05:06:50.351Z,989.759
2018-06-22T05:08:50.457Z,989.788
2018-06-22T05:10:50.889Z,989.789
2018-06-22T05:12:50.435Z,989.772
2018-06-22T05:14:50.571Z,989.731
2018-06-22T05:16:49.798Z,989.724
2018-06-22T05:18:49.866Z,989.720
2018-06-22T05:20:49.964Z,989.694
2018-06-22T05:22:50.006Z,989.706
2018-06-22T05:24:50.388Z,989.677
2018-06-22T05:26:49.958Z,989.667
2018-06-22T05:28:50.064Z,989.655
2018-06-22T05:30:50.146Z,989.647
2018-06-22T05:32:50.220Z,989.630
2018-06-22T05:34:50.451Z,989.626
2018-06-22T05:36:50.075Z,989.595
2018-06-22T05:38:50.138Z,989.610
2018-06-22T05:40:50.222Z,989.603
2018-06-22T05:42:50.282Z,989.605
2018-06-22T05:44:50.342Z,989.611
2018-06-22T05:46:49.645Z,989.611
2018-06-22T05:48:49.827Z,989.606
2018-06-22T05:50:50.684Z,989.600
2018-06-22T05:52:49.656Z,989.547
2018-06-22T05:54:49.737Z,989.525
2018-06-22T05:56:50.389Z,989.525
2018-06-22T05:58:49.936Z,989.478
2018-06-22T06:00:50.147Z,989.462
2018-06-22T06:02:50.210Z,989.424
2018-06-22T06:04:50.556Z,989.424
2018-06-22T06:06:49.846Z,989.373
2018-06-22T06:08:49.951Z,989.387
2018-06-22T06:10:50.118Z,989.375
2018-06-22T06:12:50.157Z,989.398
2018-06-22T06:14:50.250Z,989.408
2018-06-22T06:16:50.484Z,989.427
2018-06-22T06:18:50.599Z,989.431
2018-06-22T06:20:49.688Z,989.466
2018-06-22T06:22:49.783Z,989.485
2018-06-22T06:24:49.919Z,989.496
2018-06-22T06:26:50.202Z,989.506
2018-06-22T06:28:50.471Z,989.519
2018-06-22T06:30:50.535Z,989.523
2018-06-22T06:32:49.709Z,989.523
2018-06-22T06:34:50.007Z,989.503
2018-06-22T06:36:50.176Z,989.489
2018-06-22T06:38:50.258Z,989.464
2018-06-22T06:40:50.318Z,989.440
2018-06-22T06:42:50.400Z,989.418
2018-06-22T06:44:50.450Z,989.424
2018-06-22T06:46:49.675Z,989.432
2018-06-22T06:48:49.811Z,989.452
2018-06-22T06:50:50.111Z,989.452
2018-06-22T06:52:50.303Z,989.391
2018-06-22T06:54:50.358Z,989.375
2018-06-22T06:56:49.886Z,989.364
2018-06-22T06:58:50.573Z,989.429
2018-06-22T07:00:49.715Z,989.451
2018-06-22T07:02:49.869Z,989.477
2018-06-22T07:04:50.420Z,989.475
2018-06-22T07:06:50.608Z,989.519
2018-06-22T07:08:49.681Z,989.544
2018-06-22T07:10:49.858Z,989.544
2018-06-22T07:12:50.041Z,989.554
2018-06-22T07:14:50.187Z,989.543
2018-06-22T07:16:50.439Z,989.579
2018-06-22T07:18:49.702Z,989.570
2018-06-22T07:20:49.848Z,989.496
2018-06-22T07:22:50.007Z,989.478
2018-06-22T07:24:50.098Z,989.413
2018-06-22T07:26:50.325Z,989.393
2018-06-22T07:28:50.486Z,989.361
2018-06-22T07:30:49.662Z,989.369
2018-06-22T07:32:49.803Z,989.363
2018-06-22T07:34:50.316Z,989.361
2018-06-22T07:36:50.585Z,989.401
2018-06-22T07:38:49.824Z,989.394
2018-06-22T07:40:49.910Z,989.397
2018-06-22T07:42:49.966Z,989.380
2018-06-22T07:44:50.110Z,989.346
2018-06-22T07:46:50.370Z,989.313
2018-06-22T07:48:50.481Z,989.281
2018-06-22T07:50:50.567Z,989.242
2018-06-22T07:52:49.775Z,989.340
2018-06-22T07:54:49.910Z,989.342
2018-06-22T07:56:50.171Z,989.270
2018-06-22T07:58:50.305Z,989.285
2018-06-22T08:00:50.422Z,989.326
2018-06-22T08:02:50.528Z,989.335
2018-06-22T08:04:49.754Z,989.347
2018-06-22T08:06:50.184Z,989.366
2018-06-22T08:08:49.726Z,989.398
2018-06-22T08:10:49.797Z,989.416
2018-06-22T08:12:50.103Z,989.442
2018-06-22T08:14:50.212Z,989.433
2018-06-22T08:16:50.596Z,989.421
2018-06-22T08:18:50.082Z,989.464
2018-06-22T08:20:50.126Z,989.470
2018-06-22T08:22:50.198Z,989.476
2018-06-22T08:24:50.219Z,989.461
2018-06-22T08:26:50.343Z,989.373
2018-06-22T08:28:50.445Z,989.344
2018-06-22T08:30:50.553Z,989.327
2018-06-22T08:32:49.624Z,989.346
2018-06-22T08:34:50.136Z,989.343
2018-06-22T08:36:50.574Z,989.351
2018-06-22T08:38:49.676Z,989.351
2018-06-22T08:40:49.890Z,989.324
2018-06-22T08:42:50.015Z,989.324
2018-06-22T08:44:50.101Z,989.361
2018-06-22T08:46:50.310Z,989.381
2018-06-22T08:48:50.526Z,989.448
2018-06-22T08:50:49.950Z,989.486
2018-06-22T08:52:50.007Z,989.490
2018-06-22T08:54:50.151Z,989.492
2018-06-22T08:56:50.411Z,989.525
2018-06-22T08:58:50.496Z,989.545
2018-06-22T09:00:50.551Z,989.542
2018-06-22T09:02:49.862Z,989.597
2018-06-22T09:04:50.112Z,989.651
2018-06-22T09:06:50.305Z,989.650
2018-06-22T09:08:50.336Z,989.653
2018-06-22T09:10:50.384Z,989.658
2018-06-22T09:12:50.473Z,989.695
2018-06-22T09:14:50.545Z,989.701
2018-06-22T09:16:49.679Z,989.701
2018-06-22T09:18:49.843Z,989.751
2018-06-22T09:20:49.976Z,989.811
2018-06-22T09:22:50.114Z,989.866
2018-06-22T09:24:50.250Z,989.897
2018-06-22T09:26:50.422Z,989.975
2018-06-22T09:28:50.446Z,990.074
2018-06-22T09:30:50.558Z,990.074
2018-06-22T09:32:49.736Z,990.147
2018-06-22T09:34:50.113Z,990.175
2018-06-22T09:36:50.577Z,990.162
2018-06-22T09:38:50.056Z,990.189
2018-06-22T09:40:50.167Z,990.225
2018-06-22T09:42:50.374Z,990.217
2018-06-22T09:44:49.879Z,990.242
2018-06-22T09:46:50.187Z,990.221
2018-06-22T09:48:50.292Z,990.208
2018-06-22T09:50:50.405Z,990.216
2018-06-22T09:52:50.452Z,990.219
2018-06-22T09:54:50.518Z,990.295
2018-06-22T09:56:49.766Z,990.282
2018-06-22T09:58:49.849Z,990.292
2018-06-22T10:00:49.976Z,990.322
2018-06-22T10:02:50.013Z,990.337
2018-06-22T10:04:50.647Z,990.320
2018-06-22T10:06:50.551Z,990.322
2018-06-22T10:08:50.637Z,990.284
2018-06-22T10:10:49.725Z,990.246
2018-06-22T10:12:49.767Z,990.209
2018-06-22T10:14:50.060Z,990.160
2018-06-22T10:16:50.235Z,990.092
2018-06-22T10:18:50.292Z,990.068
2018-06-22T10:20:50.334Z,990.025
2018-06-22T10:22:50.426Z,990.037
2018-06-22T10:24:49.686Z,989.995
2018-06-22T10:26:49.917Z,990.009
2018-06-22T10:28:50.098Z,990.006
2018-06-22T10:30:50.166Z,990.002
2018-06-22T10:32:50.354Z,989.987
2018-06-22T10:34:49.727Z,989.955
2018-06-22T10:36:49.879Z,990.011
2018-06-22T10:38:49.966Z,989.995
2018-06-22T10:40:50.082Z,989.960
2018-06-22T10:42:50.154Z,989.970
2018-06-22T10:44:50.243Z,989.957
2018-06-22T10:46:50.460Z,989.981
2018-06-22T10:48:50.502Z,990.000
2018-06-22T10:50:50.542Z,990.000
2018-06-22T10:52:49.643Z,990.023
2018-06-22T10:54:49.770Z,990.032
2018-06-22T10:56:49.904Z,990.067
2018-06-22T10:58:50.012Z,990.061
2018-06-22T11:00:50.131Z,990.053
2018-06-22T11:02:50.209Z,990.007
2018-06-22T11:04:50.464Z,990.007
2018-06-22T11:06:49.873Z,989.955
2018-06-22T11:08:49.898Z,989.958
2018-06-22T11:10:50.068Z,989.999
2018-06-22T11:12:50.133Z,990.031
2018-06-22T11:14:50.158Z,990.031
2018-06-22T11:16:50.459Z,990.064
2018-06-22T11:18:49.742Z,990.080
2018-06-22T11:20:49.824Z,990.062
2018-06-22T11:22:49.919Z,990.017
2018-06-22T11:24:50.168Z,990.025
2018-06-22T11:26:49.874Z,989.998
2018-06-22T11:28:49.955Z,989.969
2018-06-22T11:30:50.237Z,989.926
2018-06-22T11:32:49.810Z,989.910
2018-06-22T11:34:50.001Z,989.915
2018-06-22T11:36:50.169Z,989.858
2018-06-22T11:38:50.266Z,989.853
2018-06-22T11:40:49.662Z,989.842
2018-06-22T11:42:49.864Z,989.848
2018-06-22T11:44:50.112Z,989.848
2018-06-22T11:46:50.249Z,989.846
2018-06-22T11:48:50.320Z,989.846
2018-06-22T11:50:50.390Z,989.851
2018-06-22T11:52:50.434Z,989.805
2018-06-22T11:54:50.473Z,989.714
2018-06-22T11:56:49.729Z,989.694
2018-06-22T11:58:49.798Z,989.649
2018-06-22T12:00:49.862Z,989.640
2018-06-22T12:02:50.109Z,989.728
2018-06-22T12:04:50.575Z,989.851
2018-06-22T12:06:49.865Z,990.026
2018-06-22T12:08:49.989Z,990.079
2018-06-22T12:10:50.484Z,990.085
2018-06-22T12:12:50.104Z,989.976
2018-06-22T12:14:50.385Z,989.940
2018-06-22T12:16:49.650Z,989.895
2018-06-22T12:18:49.746Z,989.833
2018-06-22T12:20:49.815Z,989.805
2018-06-22T12:22:50.265Z,989.768
2018-06-22T12:24:50.391Z,989.804
2018-06-22T12:26:50.566Z,989.861
2018-06-22T12:28:49.702Z,989.820
2018-06-22T12:30:49.841Z,989.842
2018-06-22T12:32:50.033Z,989.872
2018-06-22T12:34:50.324Z,989.862
2018-06-22T12:36:49.646Z,989.862
2018-06-22T12:38:49.729Z,989.801
2018-06-22T12:40:49.813Z,989.760
2018-06-22T12:42:49.912Z,989.729
2018-06-22T12:44:50.040Z,989.694
2018-06-22T12:46:49.787Z,989.676
2018-06-22T12:48:49.942Z,989.688
2018-06-22T12:50:50.298Z,989.688
2018-06-22T12:52:49.863Z,989.628
2018-06-22T12:54:50.340Z,989.599
2018-06-22T12:56:50.718Z,989.624
2018-06-22T12:58:50.281Z,989.600
2018-06-22T13:00:50.339Z,989.559
2018-06-22T13:02:50.384Z,989.593
2018-06-22T13:04:49.721Z,989.593
2018-06-22T13:06:49.953Z,989.599
2018-06-22T13:08:50.061Z,989.591
2018-06-22T13:10:50.172Z,989.572
2018-06-22T13:12:50.338Z,989.613
2018-06-22T13:14:50.563Z,989.592
2018-06-22T13:16:49.866Z,989.613
2018-06-22T13:18:49.922Z,989.655
2018-06-22T13:20:49.985Z,989.647
2018-06-22T13:22:50.113Z,989.638
2018-06-22T13:24:50.201Z,989.656
2018-06-22T13:26:50.427Z,989.614
2018-06-22T13:28:50.483Z,989.563
2018-06-22T13:30:50.528Z,989.617
2018-06-22T13:32:49.633Z,989.623
2018-06-22T13:34:49.812Z,989.718
2018-06-22T13:36:50.097Z,989.710
2018-06-22T13:38:50.176Z,989.690
2018-06-22T13:40:50.276Z,989.672
2018-06-22T13:42:50.351Z,989.708
2018-06-22T13:44:50.407Z,989.708
2018-06-22T13:46:50.574Z,989.654
2018-06-22T13:48:49.704Z,989.654
2018-06-22T13:50:49.790Z,989.604
2018-06-22T13:52:49.875Z,989.596
2018-06-22T13:54:49.952Z,989.625
2018-06-22T13:56:50.352Z,989.718
2018-06-22T13:58:50.001Z,989.771
2018-06-22T14:00:50.113Z,989.806
2018-06-22T14:02:50.226Z,989.887
2018-06-22T14:04:50.546Z,989.887
2018-06-22T14:06:49.839Z,989.988
2018-06-22T14:08:49.913Z,990.016
2018-06-22T14:10:50.096Z,990.077
2018-06-22T14:12:50.203Z,990.088
2018-06-22T14:14:50.268Z,990.088
2018-06-22T14:16:50.416Z,990.061
2018-06-22T14:18:50.472Z,990.062
2018-06-22T14:20:50.621Z,990.060
2018-06-22T14:22:49.684Z,990.055
2018-06-22T14:24:49.895Z,990.009
2018-06-22T14:26:50.009Z,990.008
2018-06-22T14:28:50.141Z,989.996
2018-06-22T14:30:50.453Z,989.998
2018-06-22T14:32:49.794Z,990.025
2018-06-22T14:34:50.011Z,990.034
2018-06-22T14:36:50.207Z,990.043
2018-06-22T14:38:50.237Z,990.084
2018-06-22T14:40:50.311Z,990.184
2018-06-22T14:42:50.064Z,990.323
2018-06-22T14:44:50.187Z,990.494
2018-06-22T14:46:50.322Z,990.637
2018-06-22T14:48:50.562Z,990.653
2018-06-22T14:50:49.911Z,990.650
2018-06-22T14:52:49.969Z,990.641
2018-06-22T14:54:50.031Z,990.626
2018-06-22T14:56:50.266Z,990.613
2018-06-22T14:58:50.319Z,990.600
2018-06-22T15:00:50.364Z,990.538
2018-06-22T15:02:49.619Z,990.541
2018-06-22T15:04:49.863Z,990.527
2018-06-22T15:06:50.511Z,990.546
2018-06-22T15:08:49.605Z,990.522
2018-06-22T15:10:49.740Z,990.484
2018-06-22T15:12:49.844Z,990.453
2018-06-22T15:14:49.898Z,990.431
2018-06-22T15:16:50.209Z,990.423
2018-06-22T15:18:50.377Z,990.395
2018-06-22T15:20:50.452Z,990.423
2018-06-22T15:22:50.499Z,990.404
2018-06-22T15:24:50.615Z,990.415
2018-06-22T15:26:49.878Z,990.384
2018-06-22T15:28:49.921Z,990.396
2018-06-22T15:30:50.028Z,990.424
2018-06-22T15:32:50.108Z,990.363
2018-06-22T15:34:50.357Z,990.336
2018-06-22T15:36:50.598Z,990.334
2018-06-22T15:38:49.639Z,990.279
2018-06-22T15:40:49.779Z,990.255
2018-06-22T15:42:49.883Z,990.249
2018-06-22T15:44:50.028Z,990.243
2018-06-22T15:46:50.230Z,990.247
2018-06-22T15:48:50.286Z,990.233
2018-06-22T15:50:50.375Z,990.248
2018-06-22T15:52:50.448Z,990.261
2018-06-22T15:54:50.513Z,990.226
2018-06-22T15:56:49.716Z,990.241
2018-06-22T15:58:49.799Z,990.252
2018-06-22T16:00:49.883Z,990.321
2018-06-22T16:02:50.001Z,990.321
2018-06-22T16:04:50.410Z,990.337
2018-06-22T16:06:50.602Z,990.332
2018-06-22T16:08:49.716Z,990.335
2018-06-22T16:10:49.848Z,990.325
2018-06-22T16:12:49.900Z,990.318
2018-06-22T16:14:50.023Z,990.339
2018-06-22T16:16:50.226Z,990.352
2018-06-22T16:18:50.281Z,990.355
2018-06-22T16:20:50.360Z,990.354
2018-06-22T16:22:50.491Z,990.337
2018-06-22T16:24:50.569Z,990.323
2018-06-22T16:26:49.811Z,990.305
2018-06-22T16:28:50.300Z,990.304
2018-06-22T16:30:50.362Z,990.357
2018-06-22T16:32:50.505Z,990.345
2018-06-22T16:34:49.891Z,990.318
2018-06-22T16:36:50.258Z,990.331
2018-06-22T16:38:50.498Z,990.331
2018-06-22T16:40:50.581Z,990.373
2018-06-22T16:42:49.688Z,990.411
2018-06-22T16:44:49.737Z,990.421
2018-06-22T16:46:49.946Z,990.456
2018-06-22T16:48:50.198Z,990.466
2018-06-22T16:50:50.319Z,990.550
2018-06-22T16:52:50.353Z,990.573
2018-06-22T16:54:50.399Z,990.578
2018-06-22T16:56:49.692Z,990.611
2018-06-22T16:58:49.759Z,990.620
2018-06-22T17:00:49.811Z,990.636
2018-06-22T17:02:49.872Z,990.657
2018-06-22T17:04:50.163Z,990.621
2018-06-22T17:06:50.393Z,990.629
2018-06-22T17:08:50.497Z,990.635
2018-06-22T17:10:50.567Z,990.622
2018-06-22T17:12:49.655Z,990.635
2018-06-22T17:14:49.746Z,990.649
2018-06-22T17:16:50.160Z,990.682
2018-06-22T17:18:50.210Z,990.682
2018-06-22T17:20:50.569Z,990.693
2018-06-22T17:22:49.688Z,990.713
2018-06-22T17:24:49.746Z,990.729
2018-06-22T17:26:49.955Z,990.769
2018-06-22T17:28:50.042Z,990.802
2018-06-22T17:30:50.123Z,990.838
2018-06-22T17:32:50.190Z,990.828
2018-06-22T17:34:50.357Z,990.840
2018-06-22T17:36:49.672Z,990.840
2018-06-22T17:38:49.709Z,990.831
2018-06-22T17:40:49.767Z,990.856
2018-06-22T17:42:49.808Z,990.843
2018-06-22T17:44:49.847Z,990.837
2018-06-22T17:46:50.008Z,990.861
2018-06-22T17:48:50.078Z,990.906
2018-06-22T17:50:50.149Z,990.907
2018-06-22T17:52:50.291Z,990.891
2018-06-22T17:54:50.351Z,990.871
2018-06-22T17:56:50.487Z,990.906
2018-06-22T17:58:50.539Z,990.910
2018-06-22T18:00:49.629Z,990.897
2018-06-22T18:02:49.727Z,990.875
2018-06-22T18:04:50.153Z,990.875
2018-06-22T18:06:50.449Z,990.885
2018-06-22T18:08:50.600Z,990.897
2018-06-22T18:10:50.571Z,990.895
2018-06-22T18:12:50.161Z,990.895
2018-06-22T18:14:50.330Z,990.865
2018-06-22T18:16:50.493Z,990.836
2018-06-22T18:18:50.556Z,990.826
2018-06-22T18:20:50.601Z,990.827
2018-06-22T18:22:49.907Z,990.828
2018-06-22T18:24:49.636Z,990.840
2018-06-22T18:26:49.790Z,990.852
2018-06-22T18:28:49.856Z,990.863
2018-06-22T18:30:49.967Z,990.884
2018-06-22T18:32:50.109Z,990.912
2018-06-22T18:34:50.300Z,990.933
2018-06-22T18:36:49.681Z,990.953
2018-06-22T18:38:49.735Z,990.953
2018-06-22T18:40:49.903Z,991.023
2018-06-22T18:42:49.989Z,991.021
2018-06-22T18:44:50.022Z,991.037
2018-06-22T18:46:50.253Z,991.055
2018-06-22T18:48:50.381Z,991.068
2018-06-22T18:50:50.438Z,991.079
2018-06-22T18:52:50.512Z,991.104
2018-06-22T18:54:50.556Z,991.115
2018-06-22T18:56:50.035Z,991.133
2018-06-22T18:58:49.717Z,991.143
2018-06-22T19:00:49.811Z,991.147
2018-06-22T19:02:49.822Z,991.170
2018-06-22T19:04:50.308Z,991.190
2018-06-22T19:06:50.231Z,991.182
2018-06-22T19:08:50.274Z,991.168
2018-06-22T19:10:50.299Z,991.168
2018-06-22T19:12:50.364Z,991.194
2018-06-22T19:14:50.567Z,991.213
2018-06-22T19:16:49.990Z,991.219
2018-06-22T19:18:50.699Z,991.230
2018-06-22T19:20:50.524Z,991.252
2018-06-22T19:22:50.610Z,991.254
2018-06-22T19:24:49.684Z,991.259
2018-06-22T19:26:50.010Z,991.280
2018-06-22T19:28:50.109Z,991.320
2018-06-22T19:30:50.136Z,991.367
2018-06-22T19:32:50.223Z,991.381
2018-06-22T19:34:50.588Z,991.419
2018-06-22T19:36:50.460Z,991.460
2018-06-22T19:38:50.653Z,991.473
2018-06-22T19:40:49.721Z,991.474
2018-06-22T19:42:49.866Z,991.495
2018-06-22T19:44:49.942Z,991.530
2018-06-22T19:46:50.276Z,991.592
2018-06-22T19:48:49.619Z,991.622
2018-06-22T19:50:49.897Z,991.667
2018-06-22T19:52:50.247Z,991.689
2018-06-22T19:54:49.742Z,991.721
2018-06-22T19:56:49.964Z,991.745
2018-06-22T19:58:50.084Z,991.785
2018-06-22T20:00:50.265Z,991.786
2018-06-22T20:02:50.368Z,991.791
2018-06-22T20:04:49.798Z,991.809
2018-06-22T20:06:50.066Z,991.829
2018-06-22T20:08:50.116Z,991.848
2018-06-22T20:10:50.890Z,991.868
2018-06-22T20:12:49.859Z,991.873
2018-06-22T20:14:49.644Z,991.914
2018-06-22T20:16:49.942Z,991.913
2018-06-22T20:18:50.044Z,991.932
2018-06-22T20:20:50.336Z,991.926
2018-06-22T20:22:50.809Z,991.934
2018-06-22T20:24:49.670Z,991.934
2018-06-22T20:26:49.877Z,991.964
2018-06-22T20:28:49.993Z,991.990
2018-06-22T20:30:50.166Z,992.011
2018-06-22T20:32:50.438Z,992.011
2018-06-22T20:34:49.627Z,992.028
2018-06-22T20:36:49.889Z,992.028
2018-06-22T20:38:49.935Z,992.019
2018-06-22T20:40:49.984Z,992.044
2018-06-22T20:42:50.035Z,992.043
2018-06-22T20:44:50.130Z,992.089
2018-06-22T20:46:50.337Z,992.098
2018-06-22T20:48:50.376Z,992.120
2018-06-22T20:50:50.425Z,992.131
2018-06-22T20:52:50.637Z,992.157
2018-06-22T20:54:49.713Z,992.157
2018-06-22T20:56:49.895Z,992.154
2018-06-22T20:58:50.168Z,992.163
2018-06-22T21:00:50.223Z,992.163
2018-06-22T21:02:50.273Z,992.175
2018-06-22T21:04:50.592Z,992.159
2018-06-22T21:06:49.768Z,992.136
2018-06-22T21:08:49.887Z,992.142
2018-06-22T21:10:49.987Z,992.149
2018-06-22T21:12:50.428Z,992.164
2018-06-22T21:14:50.102Z,992.179
2018-06-22T21:16:50.362Z,992.190
2018-06-22T21:18:50.504Z,992.231
2018-06-22T21:20:49.628Z,992.264
2018-06-22T21:22:49.691Z,992.278
2018-06-22T21:24:49.782Z,992.302
2018-06-22T21:26:50.043Z,992.313
2018-06-22T21:28:50.195Z,992.341
2018-06-22T21:30:50.376Z,992.365
2018-06-22T21:32:50.186Z,992.390
2018-06-22T21:34:50.654Z,992.403
2018-06-22T21:36:49.878Z,992.391
2018-06-22T21:38:49.992Z,992.389
2018-06-22T21:40:49.861Z,992.394
2018-06-22T21:42:49.938Z,992.379
2018-06-22T21:44:50.037Z,992.384
2018-06-22T21:46:50.476Z,992.398
2018-06-22T21:48:49.746Z,992.398
2018-06-22T21:50:49.823Z,992.391
2018-06-22T21:52:50.086Z,992.385
2018-06-22T21:54:50.411Z,992.394
2018-06-22T21:56:49.804Z,992.395
2018-06-22T21:58:49.944Z,992.445
2018-06-22T22:00:50.376Z,992.439
2018-06-22T22:02:49.738Z,992.427
2018-06-22T22:04:50.259Z,992.431
2018-06-22T22:06:49.714Z,992.458
2018-06-22T22:08:49.948Z,992.468
2018-06-22T22:10:50.206Z,992.465
2018-06-22T22:12:50.478Z,992.479
2018-06-22T22:14:49.901Z,992.483
2018-06-22T22:16:50.364Z,992.479
2018-06-22T22:18:49.680Z,992.472
2018-06-22T22:20:49.910Z,992.462
2018-06-22T22:22:50.212Z,992.456
2018-06-22T22:24:50.510Z,992.448
2018-06-22T22:26:49.794Z,992.443
2018-06-22T22:28:50.031Z,992.437
2018-06-22T22:30:50.266Z,992.439
2018-06-22T22:32:50.558Z,992.446
2018-06-22T22:34:49.910Z,992.435
2018-06-22T22:36:50.144Z,992.442
2018-06-22T22:38:50.248Z,992.456
2018-06-22T22:40:50.387Z,992.458
2018-06-22T22:42:50.546Z,992.480
2018-06-22T22:44:49.748Z,992.477
2018-06-22T22:46:50.007Z,992.477
2018-06-22T22:48:50.134Z,992.457
2018-06-22T22:50:50.564Z,992.445
2018-06-22T22:52:49.954Z,992.441
2018-06-22T22:54:50.243Z,992.429
2018-06-22T22:56:50.491Z,992.395
2018-06-22T22:58:49.645Z,992.381
2018-06-22T23:00:49.725Z,992.354
2018-06-22T23:02:49.895Z,992.362
2018-06-22T23:04:50.158Z,992.366
2018-06-22T23:06:50.338Z,992.366
2018-06-22T23:08:50.508Z,992.370
2018-06-22T23:10:49.708Z,992.365
2018-06-22T23:12:49.853Z,992.345
2018-06-22T23:14:49.999Z,992.330
2018-06-22T23:16:50.350Z,992.335
2018-06-22T23:18:50.582Z,992.329
2018-06-22T23:20:49.852Z,992.308
2018-06-22T23:22:50.017Z,992.284
2018-06-22T23:24:50.159Z,992.276
2018-06-22T23:26:50.419Z,992.282
2018-06-22T23:28:49.672Z,992.266
2018-06-22T23:30:49.981Z,992.258
2018-06-22T23:32:50.106Z,992.242
2018-06-22T23:34:50.407Z,992.241
2018-06-22T23:36:49.630Z,992.221
2018-06-22T23:38:49.716Z,992.235
2018-06-22T23:40:49.775Z,992.223
2018-06-22T23:42:49.824Z,992.244
2018-06-22T23:44:49.961Z,992.268
2018-06-22T23:46:50.201Z,992.268
2018-06-22T23:48:50.280Z,992.230
2018-06-22T23:50:50.347Z,992.199
2018-06-22T23:52:50.429Z,992.179
2018-06-22T23:54:50.599Z,992.141
2018-06-22T23:56:49.798Z,992.145
2018-06-22T23:58:49.842Z,992.153
